Time;durP1;ratioP1;P1;durP2;ratioP2;P2;SDS_P1;SDS_P2;PMS_P1;PMS_P2;Temp;Humidity;BMP_temperature;BMP_pressure;BME280_temperature;BME280_humidity;BME280_pressure;Samples;Min_cycle;Max_cycle;Signal;HPM_P1;HPM_P2
2023/07/12 00:03:04;;;;;;;12.70;6.00;;;;;;;20.15;63.07;98903.84;223540;182;138123;-63
2023/07/12 00:08:19;;;;;;;11.40;6.00;;;;;;;20.09;63.00;98902.83;223510;182;146998;-64
2023/07/12 00:13:24;;;;;;;10.90;6.30;;;;;;;20.00;62.92;98896.21;223366;183;138369;-64
2023/07/12 00:18:27;;;;;;;11.60;6.00;;;;;;;19.93;62.98;98881.71;223400;183;136955;-64
2023/07/12 00:23:30;;;;;;;10.70;6.40;;;;;;;19.82;63.14;98874.08;223394;182;146894;-64
2023/07/12 00:28:33;;;;;;;10.10;6.20;;;;;;;19.76;63.25;98871.89;223512;179;138885;-64
2023/07/12 00:33:37;;;;;;;10.60;5.80;;;;;;;19.72;63.45;98866.75;223530;182;137398;-63
2023/07/12 00:38:41;;;;;;;10.70;5.90;;;;;;;19.67;63.71;98861.89;223471;182;148942;-64
2023/07/12 00:44:13;;;;;;;10.70;6.00;;;;;;;19.61;63.68;98849.23;223484;183;138686;-64
2023/07/12 00:49:16;;;;;;;9.10;5.70;;;;;;;19.54;63.82;98849.98;223443;182;137732;-63
2023/07/12 00:54:24;;;;;;;8.10;5.40;;;;;;;19.51;63.81;98846.89;223488;182;147248;-63
2023/07/12 00:59:29;;;;;;;8.70;5.00;;;;;;;19.49;63.57;98851.08;223467;183;139440;-63
2023/07/12 01:04:37;;;;;;;8.50;5.30;;;;;;;19.49;63.03;98848.17;223429;182;138728;-63
2023/07/12 01:09:42;;;;;;;8.40;5.20;;;;;;;19.48;62.92;98848.45;223454;182;147813;-63
2023/07/12 01:14:47;;;;;;;9.20;5.60;;;;;;;19.43;63.11;98849.65;223456;182;139987;-64
2023/07/12 01:19:50;;;;;;;8.70;5.50;;;;;;;19.44;63.54;98849.30;223558;182;137405;-63
2023/07/12 01:24:53;;;;;;;8.00;5.50;;;;;;;19.37;63.53;98839.63;223491;183;147626;-62
2023/07/12 01:29:59;;;;;;;10.40;5.80;;;;;;;19.29;63.68;98831.89;223475;182;138170;-63
2023/07/12 01:35:03;;;;;;;10.90;5.30;;;;;;;19.21;64.00;98822.98;223536;183;140537;-64
2023/07/12 01:40:08;;;;;;;10.70;5.70;;;;;;;19.16;64.12;98816.60;223456;182;146935;-61
2023/07/12 01:45:12;;;;;;;9.30;5.80;;;;;;;19.11;64.44;98826.48;223493;182;138295;-64
2023/07/12 01:50:17;;;;;;;8.60;5.60;;;;;;;19.08;64.41;98831.61;223558;182;137395;-63
2023/07/12 01:55:20;;;;;;;8.40;5.30;;;;;;;19.04;64.38;98830.45;223431;182;147613;-63
2023/07/12 02:00:23;;;;;;;8.50;4.90;;;;;;;18.97;64.68;98824.80;223400;182;138910;-61
2023/07/12 02:05:29;;;;;;;10.20;5.20;;;;;;;18.90;64.71;98816.33;223386;182;137331;-64
2023/07/12 02:10:37;;;;;;;7.40;5.20;;;;;;;18.89;64.76;98809.41;223310;183;146984;-64
2023/07/12 02:15:40;;;;;;;6.80;4.90;;;;;;;18.91;64.33;98798.27;223423;182;138601;-64
2023/07/12 02:20:44;;;;;;;9.30;5.10;;;;;;;18.91;63.98;98794.33;223454;182;136991;-63
2023/07/12 02:25:48;;;;;;;9.30;5.30;;;;;;;18.88;63.78;98785.23;223441;183;147348;-63
2023/07/12 02:30:51;;;;;;;9.20;4.80;;;;;;;18.83;63.70;98782.58;223424;183;139594;-62
2023/07/12 02:35:55;;;;;;;8.30;4.40;;;;;;;18.72;63.55;98777.75;223502;183;138439;-64
2023/07/12 02:40:58;;;;;;;7.40;5.10;;;;;;;18.63;63.87;98779.60;223503;182;147140;-62
2023/07/12 02:46:03;;;;;;;9.60;5.00;;;;;;;18.59;64.14;98774.13;223369;183;140332;-62
2023/07/12 02:51:06;;;;;;;7.60;5.40;;;;;;;18.54;64.48;98771.59;223434;183;136915;-63
2023/07/12 02:56:10;;;;;;;12.40;5.70;;;;;;;18.50;64.81;98769.81;223446;183;146990;-63
2023/07/12 03:01:13;;;;;;;9.40;5.70;;;;;;;18.47;65.08;98767.79;223460;182;141995;-63
2023/07/12 03:06:17;;;;;;;13.00;5.40;;;;;;;18.48;65.29;98765.59;223492;182;138992;-63
2023/07/12 03:11:20;;;;;;;7.40;5.40;;;;;;;18.49;65.35;98757.89;223486;183;147066;-63
2023/07/12 03:16:24;;;;;;;13.70;5.80;;;;;;;18.53;65.31;98740.92;223479;180;138607;-63
2023/07/12 03:21:27;;;;;;;14.50;6.50;;;;;;;18.56;65.11;98734.85;223480;183;138943;-61
2023/07/12 03:26:30;;;;;;;12.20;6.60;;;;;;;18.62;64.98;98735.89;223408;182;147132;-65
2023/07/12 03:31:34;;;;;;;15.20;6.60;;;;;;;18.66;64.75;98736.05;223533;183;138413;-63
2023/07/12 03:36:42;;;;;;;9.90;6.10;;;;;;;18.70;64.87;98740.16;223533;183;137248;-62
2023/07/12 03:41:47;;;;;;;11.40;6.20;;;;;;;18.73;64.72;98741.51;223493;183;147402;-62
2023/07/12 03:46:50;;;;;;;11.10;6.70;;;;;;;18.75;64.90;98738.94;223460;183;138926;-62
2023/07/12 03:51:54;;;;;;;12.50;6.00;;;;;;;18.78;64.83;98733.98;223351;182;138173;-63
2023/07/12 03:56:58;;;;;;;9.30;6.60;;;;;;;18.82;65.03;98733.57;223452;182;146882;-62
2023/07/12 04:02:01;;;;;;;13.10;6.70;;;;;;;18.87;65.18;98720.48;223403;182;138408;-64
2023/07/12 04:07:04;;;;;;;15.70;6.70;;;;;;;18.92;65.03;98717.81;223405;183;137697;-63
2023/07/12 04:12:08;;;;;;;109.50;82.30;;;;;;;19.03;64.70;98716.35;223429;183;149279;-63
2023/07/12 04:17:11;;;;;;;13.50;8.30;;;;;;;19.29;64.35;98709.55;223522;183;140052;-65
2023/07/12 04:22:14;;;;;;;15.10;6.80;;;;;;;19.53;63.65;98700.39;223535;183;137596;-63
2023/07/12 04:27:18;;;;;;;69.20;55.30;;;;;;;19.71;62.94;98699.06;223468;182;147718;-63
2023/07/12 04:32:21;;;;;;;16.10;9.20;;;;;;;19.88;62.48;98695.31;223463;183;140075;-63
2023/07/12 04:37:27;;;;;;;11.70;6.60;;;;;;;19.96;61.71;98690.14;223551;183;137755;-64
2023/07/12 04:42:32;;;;;;;63.70;51.20;;;;;;;19.99;61.70;98687.77;223575;182;147352;-62
2023/07/12 04:47:36;;;;;;;13.00;8.20;;;;;;;20.12;61.60;98690.73;223546;182;138394;-64
2023/07/12 04:52:39;;;;;;;14.40;7.00;;;;;;;20.17;61.44;98682.99;223542;183;137229;-65
2023/07/12 04:57:42;;;;;;;18.10;7.00;;;;;;;20.24;61.52;98681.64;223520;182;146859;-64
2023/07/12 05:02:48;;;;;;;20.20;7.90;;;;;;;20.30;61.40;98685.05;223555;182;139499;-63
2023/07/12 05:07:52;;;;;;;16.20;7.80;;;;;;;20.40;61.41;98685.74;223570;183;137260;-62
2023/07/12 05:12:55;;;;;;;24.40;8.70;;;;;;;20.45;61.17;98689.63;223569;182;147045;-62
2023/07/12 05:17:58;;;;;;;23.40;8.50;;;;;;;20.52;60.33;98689.50;223528;182;138708;-63
2023/07/12 05:23:03;;;;;;;68.20;48.00;;;;;;;20.66;60.77;98673.86;223466;183;137799;-64
2023/07/12 05:28:06;;;;;;;25.90;10.40;;;;;;;20.88;60.69;98656.11;223512;182;147285;-65
2023/07/12 05:33:10;;;;;;;22.80;8.20;;;;;;;21.12;60.25;98654.94;223453;182;139067;-63
2023/07/12 05:38:14;;;;;;;55.50;29.90;;;;;;;21.28;59.57;98635.92;223440;182;139360;-66
2023/07/12 05:43:23;;;;;;;23.70;12.40;;;;;;;21.44;60.13;98632.73;223469;182;148143;-65
2023/07/12 05:48:29;;;;;;;17.00;7.00;;;;;;;21.58;59.83;98638.56;223435;182;138395;-65
2023/07/12 05:53:32;;;;;;;22.90;7.40;;;;;;;21.65;59.74;98638.27;223487;182;137160;-64
2023/07/12 06:02:06;;;;;;;18.50;6.70;;;;;;;21.78;59.00;98636.82;219477;193;667991;-66
2023/07/12 06:07:09;;;;;;;15.50;6.60;;;;;;;21.86;59.31;98643.95;223499;183;137538;-65
2023/07/12 06:12:13;;;;;;;21.60;7.20;;;;;;;21.94;59.42;98641.08;223543;183;144036;-64
2023/07/12 06:17:16;;;;;;;21.40;7.80;;;;;;;21.99;58.56;98645.72;223430;182;138431;-63
2023/07/12 06:22:20;;;;;;;26.30;8.30;;;;;;;22.05;57.75;98655.71;223506;182;136329;-64
2023/07/12 06:27:23;;;;;;;22.00;7.50;;;;;;;22.12;57.78;98649.55;223517;183;142871;-64
2023/07/12 06:32:26;;;;;;;22.10;7.50;;;;;;;22.15;58.18;98644.95;223530;183;138278;-66
2023/07/12 06:37:30;;;;;;;57.30;38.70;;;;;;;22.21;58.35;98631.66;223617;183;136982;-65
2023/07/12 06:42:33;;;;;;;43.70;19.40;;;;;;;22.31;58.72;98626.83;223435;183;143988;-63
2023/07/12 06:47:37;;;;;;;32.60;8.30;;;;;;;22.44;58.48;98617.75;223539;183;139036;-64
2023/07/12 06:52:41;;;;;;;25.70;8.10;;;;;;;22.58;58.08;98609.59;223493;182;140017;-65
2023/07/12 07:02:05;;;;;;;31.10;9.20;;;;;;;22.82;57.24;98610.70;219484;193;665852;-65
2023/07/12 07:07:08;;;;;;;25.20;7.80;;;;;;;22.91;56.91;98607.98;222976;187;136261;-67
2023/07/12 07:12:11;;;;;;;25.30;7.80;;;;;;;23.01;56.71;98595.77;223245;185;144821;-64
2023/07/12 07:17:14;;;;;;;25.70;7.80;;;;;;;23.13;56.61;98591.45;223438;183;138226;-68
2023/07/12 07:22:17;;;;;;;116.60;69.80;;;;;;;23.32;56.46;98598.16;223668;181;139325;-67
2023/07/12 07:27:21;;;;;;;70.60;44.50;;;;;;;23.51;55.45;98600.86;223429;181;143248;-66
2023/07/12 07:32:26;;;;;;;21.70;9.90;;;;;;;23.64;54.57;98590.74;223536;181;138790;-68
2023/07/12 07:37:30;;;;;;;305.80;246.40;;;;;;;23.74;54.40;98563.52;223536;181;136598;-67
2023/07/12 07:42:37;;;;;;;75.80;23.60;;;;;;;23.87;53.97;98556.59;223478;182;145114;-65
2023/07/12 07:47:52;;;;;;;28.20;8.90;;;;;;;24.03;53.66;98540.42;223610;181;139473;-64
2023/07/12 07:52:55;;;;;;;18.20;7.00;;;;;;;24.20;53.43;98546.02;223569;182;136740;-65
2023/07/12 07:57:59;;;;;;;20.80;7.20;;;;;;;24.36;53.05;98542.49;223549;181;145285;-66
2023/07/12 08:03:06;;;;;;;24.10;8.40;;;;;;;24.52;53.02;98536.92;221739;181;138695;-65
2023/07/12 08:08:11;;;;;;;16.90;6.70;;;;;;;24.69;52.62;98527.55;223656;182;136907;-64
2023/07/12 08:13:14;;;;;;;16.40;5.90;;;;;;;24.81;52.05;98525.58;223530;182;145525;-64
2023/07/12 08:18:17;;;;;;;12.30;5.70;;;;;;;24.92;51.46;98531.81;223385;182;138448;-65
2023/07/12 08:23:22;;;;;;;13.30;5.30;;;;;;;25.03;51.42;98531.26;223540;183;136664;-65
2023/07/12 08:28:25;;;;;;;12.50;5.10;;;;;;;25.13;51.60;98523.21;223436;182;145351;-64
2023/07/12 08:33:28;;;;;;;12.40;4.90;;;;;;;25.22;51.07;98525.02;223482;182;139301;-64
2023/07/12 08:38:32;;;;;;;10.50;5.10;;;;;;;25.29;51.25;98528.29;223639;182;137750;-65
2023/07/12 08:43:40;;;;;;;10.30;5.50;;;;;;;25.36;51.46;98529.73;223480;182;144981;-65
2023/07/12 08:48:44;;;;;;;14.00;5.30;;;;;;;25.40;52.40;98520.95;223517;182;138465;-64
2023/07/12 08:53:48;;;;;;;14.90;6.30;;;;;;;25.47;52.74;98509.63;223485;183;136709;-65
2023/07/12 08:58:53;;;;;;;12.30;5.20;;;;;;;25.62;52.37;98511.86;223481;182;148095;-65
2023/07/12 09:03:58;;;;;;;11.50;5.50;;;;;;;25.84;51.45;98514.30;223548;182;140529;-66
2023/07/12 09:09:04;;;;;;;16.60;5.50;;;;;;;26.03;51.31;98510.77;223503;182;136425;-65
2023/07/12 09:14:19;;;;;;;49.90;34.70;;;;;;;26.28;50.98;98511.14;223532;181;145460;-64
2023/07/12 09:19:27;;;;;;;17.50;7.30;;;;;;;26.56;51.19;98503.73;223340;182;138456;-64
2023/07/12 09:24:31;;;;;;;10.80;6.00;;;;;;;26.69;50.29;98490.23;223541;182;136526;-65
2023/07/12 09:29:36;;;;;;;16.20;6.40;;;;;;;26.83;50.03;98476.02;223499;182;147144;-64
2023/07/12 09:34:39;;;;;;;;;;;;;;;26.94;50.09;98472.67;223622;182;140132;-65
2023/07/12 09:39:57;;;;;;;16.20;6.30;;;;;;;27.02;51.24;98483.33;223528;182;130154;-64
2023/07/12 09:45:04;;;;;;;10.60;5.90;;;;;;;27.07;50.14;98497.05;223528;182;283532;-65
2023/07/12 09:50:26;;;;;;;10.70;6.10;;;;;;;27.01;48.87;98497.98;223532;182;138507;-65
2023/07/12 09:55:29;;;;;;;9.80;6.00;;;;;;;26.90;48.60;98490.79;223589;182;139282;-64
2023/07/12 10:02:19;;;;;;;14.60;5.80;;;;;;;26.85;48.58;98496.10;221439;194;666919;-64
2023/07/12 11:02:20;;;;;;;10.30;6.50;;;;;;;26.23;56.82;98466.36;219907;191;687748;-64
2023/07/12 11:07:23;;;;;;;11.10;6.50;;;;;;;26.53;56.49;98463.79;223675;183;137106;-64
2023/07/12 11:12:26;;;;;;;10.50;5.90;;;;;;;26.97;55.12;98477.25;223632;183;143455;-66
2023/07/12 11:17:30;;;;;;;7.00;6.00;;;;;;;27.43;54.51;98484.08;223761;180;138328;-64
2023/07/12 11:22:54;;;;;;;7.80;5.80;;;;;;;27.58;53.02;98489.32;223726;181;136472;-65
2023/07/12 11:28:04;;;;;;;10.50;6.70;;;;;;;27.56;52.44;98492.19;223704;181;143270;-64
2023/07/12 11:33:07;;;;;;;9.70;5.60;;;;;;;27.60;52.18;98489.52;223777;181;138877;-65
2023/07/12 11:38:17;;;;;;;10.80;6.80;;;;;;;27.72;52.97;98490.79;223823;181;137390;-64
2023/07/12 11:43:23;;;;;;;9.30;6.10;;;;;;;27.72;51.79;98489.11;223727;180;143572;-65
2023/07/12 11:48:34;;;;;;;7.60;5.80;;;;;;;27.63;51.11;98486.27;223802;181;139162;-66
2023/07/12 11:53:39;;;;;;;9.40;6.10;;;;;;;27.56;50.75;98484.06;223837;181;136666;-65
2023/07/12 11:58:42;;;;;;;7.80;6.20;;;;;;;27.53;51.27;98488.33;223810;181;145682;-65
2023/07/12 12:03:50;;;;;;;13.90;6.60;;;;;;;27.46;51.52;98488.70;223601;181;138854;-64
2023/07/12 12:08:54;;;;;;;11.00;5.70;;;;;;;27.37;51.43;98486.26;223770;182;137331;-66
2023/07/12 12:13:58;;;;;;;11.10;5.00;;;;;;;27.24;49.65;98497.62;223784;181;145779;-65
2023/07/12 12:19:16;;;;;;;7.00;4.50;;;;;;;27.14;48.17;98503.70;223788;181;139424;-64
2023/07/12 12:24:21;;;;;;;8.80;4.30;;;;;;;27.07;46.55;98504.95;223782;181;136863;-64
2023/07/12 12:29:25;;;;;;;13.50;4.70;;;;;;;27.01;46.04;98500.71;223781;182;145857;-66
2023/07/12 12:34:43;;;;;;;7.70;4.50;;;;;;;26.96;45.76;98495.91;223691;182;138934;-73
2023/07/12 12:40:04;;;;;;;10.50;4.50;;;;;;;26.97;45.48;98495.73;223760;181;136978;-72
2023/07/12 12:45:09;;;;;;;7.50;4.40;;;;;;;27.01;45.19;98516.19;223812;181;145191;-72
2023/07/12 12:50:19;;;;;;;8.50;4.90;;;;;;;26.98;45.24;98523.72;223692;181;140565;-71
2023/07/12 12:55:25;;;;;;;7.60;4.90;;;;;;;26.94;45.45;98518.30;223624;181;136720;-67
2023/07/12 13:00:31;;;;;;;7.20;4.50;;;;;;;26.87;45.91;98529.06;223613;182;145194;-76
2023/07/12 13:05:37;;;;;;;8.90;5.10;;;;;;;26.76;46.13;98541.40;223678;181;138443;-75
2023/07/12 13:10:50;;;;;;;9.60;6.10;;;;;;;26.64;46.41;98551.77;223714;181;136535;-76
2023/07/12 13:15:57;;;;;;;11.80;5.10;;;;;;;26.52;46.64;98549.38;223663;181;145147;-70
2023/07/12 13:21:06;;;;;;;10.70;5.30;;;;;;;26.44;46.84;98557.70;223814;181;140214;-70
2023/07/12 13:26:14;;;;;;;6.50;5.10;;;;;;;26.37;47.10;98559.29;223713;181;136679;-68
2023/07/12 13:31:20;;;;;;;9.70;5.50;;;;;;;26.34;47.39;98555.52;223779;182;145176;-69
2023/07/12 13:36:30;;;;;;;8.20;4.80;;;;;;;26.36;47.73;98554.98;223723;182;138673;-64
2023/07/12 13:41:33;;;;;;;14.50;5.40;;;;;;;26.45;47.74;98547.02;223723;182;137348;-64
2023/07/12 13:47:00;;;;;;;8.20;5.20;;;;;;;26.55;47.49;98547.95;223476;182;284037;-66
2023/07/12 13:52:04;;;;;;;6.70;4.90;;;;;;;26.59;47.15;98546.44;223652;181;138901;-66
2023/07/12 13:57:10;;;;;;;8.50;5.70;;;;;;;26.67;47.30;98534.09;223623;181;137629;-67
2023/07/12 14:02:33;;;;;;;8.20;5.30;;;;;;;26.86;47.33;98526.50;223722;181;145541;-66
2023/07/12 14:07:42;;;;;;;6.70;5.00;;;;;;;27.21;46.71;98519.27;223607;181;139502;-67
2023/07/12 14:13:16;;;;;;;22.00;5.10;;;;;;;27.58;46.45;98518.34;223747;181;136543;-65
2023/07/12 14:18:20;;;;;;;7.60;4.90;;;;;;;27.82;45.64;98511.92;223660;181;145720;-67
2023/07/12 14:23:23;;;;;;;7.40;4.50;;;;;;;28.05;45.14;98504.09;223689;181;139679;-67
2023/07/12 14:28:28;;;;;;;6.10;4.50;;;;;;;28.25;44.38;98502.47;223587;182;136565;-66
2023/07/12 14:33:43;;;;;;;8.50;4.60;;;;;;;28.37;43.87;98489.89;223660;182;145938;-62
2023/07/12 14:38:47;;;;;;;9.60;5.00;;;;;;;28.34;43.73;98490.48;223641;181;138117;-63
2023/07/12 14:43:51;;;;;;;14.10;7.80;;;;;;;28.24;44.19;98492.13;223750;181;136817;-67
2023/07/12 14:48:54;;;;;;;89.20;74.00;;;;;;;28.19;44.48;98494.60;223659;182;145961;-64
2023/07/12 14:53:58;;;;;;;9.70;5.90;;;;;;;28.17;44.34;98486.84;223674;181;139402;-63
2023/07/12 14:59:01;;;;;;;6.70;4.80;;;;;;;28.08;44.45;98483.10;223669;182;140451;-67
2023/07/12 15:04:11;;;;;;;9.20;4.80;;;;;;;28.03;45.27;98484.15;223707;182;145426;-65
2023/07/12 15:09:14;;;;;;;9.90;4.80;;;;;;;28.03;45.61;98479.06;223669;182;139499;-65
2023/07/12 15:14:25;;;;;;;8.40;4.30;;;;;;;28.04;45.61;98472.57;223769;182;136944;-65
2023/07/12 15:19:28;;;;;;;9.20;4.90;;;;;;;28.04;45.51;98473.91;223649;181;145073;-65
2023/07/12 15:24:31;;;;;;;5.80;4.70;;;;;;;28.05;45.43;98477.16;223721;181;139302;-70
2023/07/12 15:29:35;;;;;;;12.10;4.50;;;;;;;28.00;45.15;98474.36;223726;181;139564;-65
2023/07/12 15:34:39;;;;;;;9.30;4.40;;;;;;;28.00;45.42;98470.75;223595;181;145358;-69
2023/07/12 15:39:43;;;;;;;6.20;4.40;;;;;;;28.10;45.52;98472.19;223732;181;138730;-68
2023/07/12 15:44:46;;;;;;;6.60;4.60;;;;;;;28.19;45.46;98473.98;223777;181;136753;-67
2023/07/12 15:49:49;;;;;;;8.70;6.30;;;;;;;28.22;44.96;98476.31;223718;181;145346;-68
2023/07/12 15:54:53;;;;;;;7.30;4.80;;;;;;;28.19;44.88;98477.17;223714;182;138508;-65
2023/07/12 15:59:56;;;;;;;7.40;4.20;;;;;;;28.12;44.61;98472.64;223755;181;136798;-68
2023/07/12 16:04:59;;;;;;;11.50;4.40;;;;;;;28.04;44.75;98479.09;223637;181;145410;-68
2023/07/12 16:10:03;;;;;;;6.10;5.30;;;;;;;27.99;45.18;98473.83;223703;182;139137;-64
2023/07/12 16:15:17;;;;;;;7.50;5.10;;;;;;;27.94;45.46;98464.27;223768;182;136293;-66
2023/07/12 16:20:21;;;;;;;6.60;4.70;;;;;;;27.88;45.85;98462.29;223693;182;146983;-66
2023/07/12 16:25:24;;;;;;;5.40;4.50;;;;;;;27.83;46.17;98464.20;223661;182;138455;-66
2023/07/12 16:30:28;;;;;;;6.60;5.10;;;;;;;27.78;46.32;98465.16;223645;181;136438;-66
2023/07/12 16:35:31;;;;;;;10.40;5.10;;;;;;;27.74;46.55;98466.93;223715;182;145747;-68
2023/07/12 16:40:35;;;;;;;10.80;5.50;;;;;;;27.71;46.85;98463.95;223669;181;139596;-66
2023/07/12 16:45:38;;;;;;;9.80;5.10;;;;;;;27.69;47.08;98465.98;223707;181;136703;-69
2023/07/12 16:50:44;;;;;;;12.50;5.30;;;;;;;27.70;47.45;98463.93;223752;181;145619;-68
2023/07/12 16:55:48;;;;;;;10.30;5.50;;;;;;;27.73;47.47;98462.89;223760;181;138103;-66
2023/07/12 17:00:57;;;;;;;7.30;4.90;;;;;;;27.73;47.58;98466.85;223719;181;139985;-67
2023/07/12 17:06:01;;;;;;;8.50;5.10;;;;;;;27.75;47.68;98471.02;223705;181;144829;-66
2023/07/12 17:11:05;;;;;;;7.60;5.10;;;;;;;27.76;47.57;98479.40;223711;181;139105;-66
2023/07/12 17:16:11;;;;;;;9.70;5.50;;;;;;;27.78;47.28;98484.23;223699;182;137299;-68
2023/07/12 17:21:22;;;;;;;306.50;256.60;;;;;;;27.81;47.53;98479.29;223679;181;145438;-64
2023/07/12 17:26:46;;;;;;;24.00;18.50;;;;;;;27.81;47.36;98476.00;223698;181;138862;-66
2023/07/12 17:31:59;;;;;;;11.30;7.10;;;;;;;27.81;46.98;98479.71;223661;181;137163;-70
2023/07/12 17:37:04;;;;;;;7.20;4.70;;;;;;;27.77;46.78;98478.75;223740;181;145247;-66
2023/07/12 17:42:12;;;;;;;115.60;103.60;;;;;;;27.74;46.74;98484.73;223590;181;138848;-65
2023/07/12 17:47:21;;;;;;;16.30;9.90;;;;;;;27.71;46.73;98485.48;223650;181;138230;-66
2023/07/12 17:52:32;;;;;;;8.50;6.90;;;;;;;27.67;46.53;98479.14;223635;181;146183;-67
2023/07/12 17:57:35;;;;;;;10.50;4.90;;;;;;;27.61;46.72;98482.90;223647;181;138588;-66
2023/07/12 18:02:38;;;;;;;7.30;4.00;;;;;;;27.55;46.86;98486.38;223641;181;136600;-66
2023/07/12 18:07:42;;;;;;;22.70;16.10;;;;;;;27.52;46.77;98482.48;223591;182;144924;-66
2023/07/12 18:12:45;;;;;;;8.40;5.30;;;;;;;27.44;46.99;98488.11;223653;181;138547;-68
2023/07/12 18:17:49;;;;;;;11.90;6.60;;;;;;;27.41;47.33;98492.49;223742;182;137414;-66
2023/07/12 18:22:52;;;;;;;5.50;4.50;;;;;;;27.33;47.73;98497.16;223666;181;145251;-65
2023/07/12 18:27:56;;;;;;;8.00;4.20;;;;;;;27.28;47.91;98493.61;223570;181;138711;-66
2023/07/12 18:33:02;;;;;;;12.50;4.50;;;;;;;27.27;47.98;98495.16;223790;182;136571;-68
2023/07/12 18:38:05;;;;;;;9.30;4.70;;;;;;;27.23;48.00;98487.48;223675;181;145126;-65
2023/07/12 18:43:21;;;;;;;10.70;4.90;;;;;;;27.19;48.25;98489.98;223716;181;138923;-67
2023/07/12 18:48:25;;;;;;;11.30;4.50;;;;;;;27.15;48.63;98492.31;223684;182;136574;-64
2023/07/12 18:53:30;;;;;;;24.30;21.70;;;;;;;27.12;48.78;98496.67;223661;181;146045;-64
2023/07/12 19:02:20;;;;;;;12.80;5.70;;;;;;;27.15;49.27;98516.30;220011;192;666388;-64
2023/07/12 19:07:29;;;;;;;11.20;5.00;;;;;;;27.00;50.49;98531.56;223515;185;136906;-63
2023/07/12 19:12:32;;;;;;;6.60;5.20;;;;;;;26.78;51.66;98544.80;223455;185;143798;-64
2023/07/12 19:17:35;;;;;;;14.00;5.70;;;;;;;26.60;52.08;98548.88;223396;185;138450;-63
2023/07/12 19:22:40;;;;;;;63.30;46.50;;;;;;;26.44;52.33;98551.34;223450;183;136226;-64
2023/07/12 19:27:43;;;;;;;9.30;6.00;;;;;;;26.31;52.64;98552.19;223543;184;143854;-63
2023/07/12 19:32:47;;;;;;;16.50;12.80;;;;;;;26.18;53.39;98555.33;223653;184;138497;-63
2023/07/12 19:37:52;;;;;;;21.00;17.50;;;;;;;26.03;53.97;98543.42;223639;184;137396;-64
2023/07/12 19:42:56;;;;;;;11.00;6.00;;;;;;;25.92;54.42;98549.52;223538;184;143606;-64
2023/07/12 19:48:00;;;;;;;9.50;5.80;;;;;;;25.80;55.25;98559.79;223623;184;138216;-64
2023/07/12 19:53:24;;;;;;;11.50;7.10;;;;;;;25.70;55.40;98563.85;223583;183;136935;-62
2023/07/12 19:58:29;;;;;;;11.80;6.60;;;;;;;25.60;55.71;98573.27;223513;184;145742;-64
2023/07/12 20:03:33;;;;;;;10.90;6.30;;;;;;;25.52;56.32;98581.21;223416;184;137364;-63
2023/07/12 20:08:37;;;;;;;9.50;6.10;;;;;;;25.46;56.58;98585.40;223602;184;136840;-63
2023/07/12 20:13:41;;;;;;;13.50;6.70;;;;;;;25.39;57.53;98588.15;223381;184;145978;-63
2023/07/12 20:18:45;;;;;;;10.90;6.50;;;;;;;25.32;57.56;98593.55;223438;184;138224;-63
2023/07/12 20:23:48;;;;;;;10.30;7.00;;;;;;;25.28;57.72;98585.60;223607;184;136669;-63
2023/07/12 20:28:51;;;;;;;9.90;6.80;;;;;;;25.21;58.28;98577.69;223512;184;145392;-63
2023/07/12 20:33:55;;;;;;;11.60;7.00;;;;;;;25.13;58.45;98579.77;223352;184;138893;-63
2023/07/12 20:38:58;;;;;;;16.80;7.10;;;;;;;25.04;58.63;98578.92;223682;182;136224;-64
2023/07/12 20:44:01;;;;;;;12.30;6.70;;;;;;;24.99;59.19;98570.11;223645;182;145698;-63
2023/07/12 20:49:06;;;;;;;10.20;6.70;;;;;;;24.93;59.58;98567.80;223704;182;138741;-64
2023/07/12 20:54:10;;;;;;;13.00;6.80;;;;;;;24.88;59.96;98567.89;223705;183;136931;-64
2023/07/12 20:59:18;;;;;;;13.80;7.20;;;;;;;24.83;60.17;98568.90;223679;182;145256;-63
2023/07/12 21:04:21;;;;;;;10.70;6.80;;;;;;;24.78;60.51;98563.20;223644;182;138182;-63
2023/07/12 21:09:25;;;;;;;13.50;6.80;;;;;;;24.75;60.81;98569.67;223730;182;140102;-63
2023/07/12 21:14:28;;;;;;;12.90;7.60;;;;;;;24.75;60.88;98578.97;223701;182;145024;-63
2023/07/12 21:19:31;;;;;;;17.30;7.00;;;;;;;24.81;60.81;98580.15;223687;182;138217;-63
2023/07/12 21:24:35;;;;;;;14.60;7.00;;;;;;;24.86;60.81;98578.38;223696;183;137865;-63
2023/07/12 21:29:38;;;;;;;14.50;7.40;;;;;;;24.85;61.15;98576.07;223699;182;145292;-63
2023/07/12 21:34:41;;;;;;;13.70;7.10;;;;;;;24.81;61.18;98574.63;223610;181;138832;-63
2023/07/12 21:39:45;;;;;;;13.40;7.50;;;;;;;24.72;61.32;98572.83;223728;182;136979;-63
2023/07/12 21:44:49;;;;;;;14.80;7.90;;;;;;;24.63;61.51;98570.08;223789;182;145820;-63
2023/07/12 21:49:53;;;;;;;16.70;7.40;;;;;;;24.50;61.86;98571.44;223645;182;139116;-63
2023/07/12 21:54:57;;;;;;;13.80;7.20;;;;;;;24.37;62.32;98576.93;223654;182;137094;-63
2023/07/12 22:00:00;;;;;;;13.50;7.60;;;;;;;24.28;62.37;98589.23;223682;182;146570;-63
2023/07/12 22:05:04;;;;;;;10.50;7.30;;;;;;;24.38;61.61;98594.16;223653;181;137923;-63
2023/07/12 22:10:11;;;;;;;14.40;7.70;;;;;;;24.50;61.12;98600.99;223618;182;136881;-64
2023/07/12 22:15:15;;;;;;;10.90;7.00;;;;;;;24.50;61.30;98607.77;223465;182;145790;-63
2023/07/12 22:20:19;;;;;;;9.80;6.80;;;;;;;24.56;60.28;98617.04;223669;182;138850;-64
2023/07/12 22:25:23;;;;;;;9.10;6.60;;;;;;;24.63;59.71;98615.89;223603;182;137538;-63
2023/07/12 22:30:33;;;;;;;11.30;7.00;;;;;;;24.64;59.59;98619.40;223620;183;146002;-64
2023/07/12 22:35:36;;;;;;;13.00;6.70;;;;;;;24.64;59.26;98620.42;223485;182;139100;-64
2023/07/12 22:40:39;;;;;;;12.30;6.60;;;;;;;24.62;59.14;98620.21;223572;181;137596;-64
2023/07/12 22:45:43;;;;;;;11.80;6.60;;;;;;;24.60;59.26;98627.03;223577;182;145283;-64
2023/07/12 22:50:46;;;;;;;9.00;7.10;;;;;;;24.51;59.52;98635.33;223727;182;139223;-63
2023/07/12 22:55:57;;;;;;;8.90;6.70;;;;;;;24.45;59.68;98632.51;223738;182;137673;-66
2023/07/12 23:01:00;;;;;;;9.80;6.60;;;;;;;24.41;59.82;98630.70;223744;182;144951;-66
2023/07/12 23:06:04;;;;;;;10.70;6.90;;;;;;;24.38;59.87;98615.69;223633;182;138479;-64
2023/07/12 23:11:12;;;;;;;10.30;6.80;;;;;;;24.37;60.01;98613.02;223679;179;137514;-64
2023/07/12 23:16:21;;;;;;;8.60;6.20;;;;;;;24.35;60.05;98608.89;223647;182;145475;-64
2023/07/12 23:21:24;;;;;;;11.00;6.70;;;;;;;24.32;60.28;98611.63;223706;182;138523;-65
2023/07/12 23:26:28;;;;;;;9.30;7.20;;;;;;;24.29;60.38;98613.60;223751;182;137089;-65
2023/07/12 23:31:33;;;;;;;9.10;7.20;;;;;;;24.28;60.49;98601.66;223567;182;145805;-66
2023/07/12 23:36:37;;;;;;;15.40;7.60;;;;;;;24.28;60.61;98584.74;223635;182;138876;-66
2023/07/12 23:41:48;;;;;;;11.90;7.30;;;;;;;24.24;60.80;98613.52;223597;182;137912;-65
2023/07/12 23:46:59;;;;;;;13.60;6.90;;;;;;;24.16;61.19;98616.26;223676;183;145096;-65
2023/07/12 23:52:04;;;;;;;9.60;6.80;;;;;;;24.09;61.67;98620.02;223577;182;138805;-63
2023/07/12 23:57:07;;;;;;;12.40;7.00;;;;;;;24.03;62.07;98627.07;223802;182;136776;-62
